Time;durP1;ratioP1;P1;durP2;ratioP2;P2;SDS_P1;SDS_P2;PMS_P1;PMS_P2;Temp;Humidity;BMP_temperature;BMP_pressure;BME280_temperature;BME280_humidity;BME280_pressure;Samples;Min_cycle;Max_cycle;Signal;HPM_P1;HPM_P2
2021/03/12 00:02:19;;;;;;;0.95;0.70;;;;;;;;;;5048774;28;20594;-65
2021/03/12 00:04:45;;;;;;;0.98;0.60;;;;;;;;;;5049479;28;20163;-65
2021/03/12 00:07:11;;;;;;;0.65;0.57;;;;;;;;;;5048792;28;20108;-65
2021/03/12 00:09:38;;;;;;;1.45;0.98;;;;;;;;;;5049605;28;20212;-65
2021/03/12 00:12:04;;;;;;;1.65;1.33;;;;;;;;;;5048458;28;20558;-65
2021/03/12 00:14:30;;;;;;;0.75;0.75;;;;;;;;;;5051288;28;20024;-65
2021/03/12 00:16:56;;;;;;;1.75;0.70;;;;;;;;;;5053715;28;20048;-65
2021/03/12 00:19:22;;;;;;;1.38;0.85;;;;;;;;;;5052900;28;20033;-65
2021/03/12 00:21:49;;;;;;;1.25;0.60;;;;;;;;;;5053159;28;20112;-65
2021/03/12 00:24:15;;;;;;;3.88;1.25;;;;;;;;;;5052654;28;20084;-65
2021/03/12 00:26:41;;;;;;;2.13;0.75;;;;;;;;;;5053688;28;20024;-65
2021/03/12 00:29:07;;;;;;;1.15;0.75;;;;;;;;;;5052452;28;20032;-65
2021/03/12 00:31:33;;;;;;;0.68;0.50;;;;;;;;;;5052804;28;20029;-65
2021/03/12 00:33:59;;;;;;;0.68;0.52;;;;;;;;;;5053073;28;20028;-65
2021/03/12 00:36:25;;;;;;;0.77;0.60;;;;;;;;;;5052651;28;20407;-65
2021/03/12 00:38:52;;;;;;;0.47;0.40;;;;;;;;;;5053285;28;20035;-65
2021/03/12 00:41:18;;;;;;;1.25;1.05;;;;;;;;;;5052097;28;20467;-65
2021/03/12 00:43:44;;;;;;;1.08;0.90;;;;;;;;;;5053248;28;20063;-65
2021/03/12 00:46:11;;;;;;;0.90;0.50;;;;;;;;;;5052487;28;20399;-65
2021/03/12 00:48:37;;;;;;;0.50;0.50;;;;;;;;;;5053344;28;20025;-65
2021/03/12 00:51:04;;;;;;;0.50;0.50;;;;;;;;;;5052240;28;20061;-65
2021/03/12 00:53:30;;;;;;;2.83;0.63;;;;;;;;;;5052699;28;20029;-65
2021/03/12 00:55:56;;;;;;;0.77;0.47;;;;;;;;;;5053129;28;20100;-65
2021/03/12 00:58:23;;;;;;;0.73;0.70;;;;;;;;;;5050589;28;20433;-65
2021/03/12 01:00:49;;;;;;;0.93;0.80;;;;;;;;;;5051075;28;20108;-65
2021/03/12 01:03:16;;;;;;;1.13;0.68;;;;;;;;;;5050702;28;20029;-65
2021/03/12 01:05:42;;;;;;;1.25;0.70;;;;;;;;;;5051689;28;20044;-65
2021/03/12 01:08:09;;;;;;;1.75;0.80;;;;;;;;;;5050627;28;20040;-65
2021/03/12 01:10:36;;;;;;;1.27;0.50;;;;;;;;;;5051115;28;20021;-65
2021/03/12 01:13:02;;;;;;;0.57;0.57;;;;;;;;;;5051165;28;20067;-65
2021/03/12 01:15:28;;;;;;;0.63;0.50;;;;;;;;;;5051042;28;20099;-65
2021/03/12 01:17:55;;;;;;;0.85;0.38;;;;;;;;;;5051365;28;20506;-65
2021/03/12 01:20:23;;;;;;;2.85;1.13;;;;;;;;;;5050053;28;20107;-65
2021/03/12 01:22:49;;;;;;;1.33;0.88;;;;;;;;;;5050644;28;20411;-65
2021/03/12 01:25:17;;;;;;;1.35;0.65;;;;;;;;;;5050109;28;20480;-65
2021/03/12 01:27:43;;;;;;;0.40;0.40;;;;;;;;;;5051318;28;20025;-65
2021/03/12 01:30:12;;;;;;;0.52;0.30;;;;;;;;;;5049967;28;20479;-65
2021/03/12 01:32:39;;;;;;;1.00;0.65;;;;;;;;;;5051073;28;20045;-65
2021/03/12 01:35:05;;;;;;;0.50;0.50;;;;;;;;;;5050647;28;20120;-65
2021/03/12 01:37:31;;;;;;;1.17;0.60;;;;;;;;;;5049812;28;20033;-65
2021/03/12 01:39:57;;;;;;;0.40;0.30;;;;;;;;;;5050617;28;20112;-65
2021/03/12 01:42:23;;;;;;;1.25;0.63;;;;;;;;;;5049850;28;20068;-65
2021/03/12 01:44:49;;;;;;;0.80;0.60;;;;;;;;;;5050734;28;20044;-65
2021/03/12 01:47:16;;;;;;;0.60;0.60;;;;;;;;;;5050225;28;20035;-65
2021/03/12 01:49:42;;;;;;;0.88;0.85;;;;;;;;;;5050742;28;20040;-65
2021/03/12 01:52:08;;;;;;;0.70;0.45;;;;;;;;;;5049878;28;20060;-65
2021/03/12 01:54:35;;;;;;;1.35;0.95;;;;;;;;;;5050846;28;20020;-65
2021/03/12 01:59:40;;;;;;;1.48;0.60;;;;;;;;;;5105100;27;20772;-65
2021/03/12 02:02:07;;;;;;;0.80;0.60;;;;;;;;;;5103723;28;20089;-64
2021/03/12 02:04:33;;;;;;;1.40;1.08;;;;;;;;;;5105208;28;20024;-65
2021/03/12 02:06:59;;;;;;;1.35;0.50;;;;;;;;;;5106029;28;20032;-65
2021/03/12 02:09:25;;;;;;;0.40;0.40;;;;;;;;;;5104852;28;20847;-64
2021/03/12 02:12:11;;;;;;;2.28;1.52;;;;;;;;;;5104764;28;20107;-64
2021/03/12 02:14:41;;;;;;;0.40;0.35;;;;;;;;;;5093995;28;20036;-64
2021/03/12 02:17:11;;;;;;;1.73;0.57;;;;;;;;;;5104914;28;20095;-64
2021/03/12 02:19:55;;;;;;;0.82;0.70;;;;;;;;;;5105412;28;20032;-64
2021/03/12 02:22:22;;;;;;;1.35;0.77;;;;;;;;;;5104011;28;20447;-64
2021/03/12 02:25:05;;;;;;;1.17;0.98;;;;;;;;;;5105348;28;20028;-64
2021/03/12 02:27:33;;;;;;;0.90;0.63;;;;;;;;;;5104519;28;20031;-64
2021/03/12 02:30:00;;;;;;;0.95;0.75;;;;;;;;;;5104692;28;20053;-64
2021/03/12 02:32:29;;;;;;;0.35;0.35;;;;;;;;;;5104208;28;20028;-64
2021/03/12 02:34:56;;;;;;;1.30;0.85;;;;;;;;;;5104783;28;20485;-64
2021/03/12 02:37:23;;;;;;;0.60;0.60;;;;;;;;;;5104767;28;20035;-64
2021/03/12 02:39:51;;;;;;;0.90;0.47;;;;;;;;;;5104610;28;20211;-64
2021/03/12 02:42:20;;;;;;;0.98;0.93;;;;;;;;;;5103850;28;20073;-64
2021/03/12 02:44:47;;;;;;;0.80;0.80;;;;;;;;;;5104879;28;20039;-64
2021/03/12 02:47:24;;;;;;;1.05;0.90;;;;;;;;;;5104483;28;20039;-64
2021/03/12 02:49:51;;;;;;;1.88;0.70;;;;;;;;;;5104614;28;20498;-64
2021/03/12 02:52:18;;;;;;;0.68;0.50;;;;;;;;;;5103617;28;20111;-64
2021/03/12 02:54:45;;;;;;;0.90;0.70;;;;;;;;;;5105049;28;20061;-64
2021/03/12 02:57:12;;;;;;;0.63;0.50;;;;;;;;;;5103611;28;20120;-64
2021/03/12 02:59:38;;;;;;;2.17;0.57;;;;;;;;;;5104059;28;20446;-64
2021/03/12 03:02:05;;;;;;;0.77;0.57;;;;;;;;;;5102884;28;20123;-64
2021/03/12 03:04:31;;;;;;;1.23;0.50;;;;;;;;;;5103459;28;20022;-64
2021/03/12 03:06:58;;;;;;;0.70;0.70;;;;;;;;;;5104451;28;20110;-64
2021/03/12 03:09:25;;;;;;;0.60;0.57;;;;;;;;;;5099071;28;20032;-64
2021/03/12 03:11:51;;;;;;;4.72;1.15;;;;;;;;;;5090743;28;20031;-64
2021/03/12 03:14:18;;;;;;;0.50;0.47;;;;;;;;;;5090185;28;20024;-64
2021/03/12 03:16:45;;;;;;;3.22;0.90;;;;;;;;;;5091380;28;20059;-64
2021/03/12 03:19:12;;;;;;;0.40;0.30;;;;;;;;;;5089650;28;20474;-64
2021/03/12 03:21:38;;;;;;;0.80;0.60;;;;;;;;;;5090100;28;20058;-64
2021/03/12 03:24:05;;;;;;;2.72;0.73;;;;;;;;;;5090018;28;20094;-64
2021/03/12 03:26:31;;;;;;;0.85;0.63;;;;;;;;;;5090485;28;20031;-64
2021/03/12 03:28:57;;;;;;;0.45;0.45;;;;;;;;;;5089926;28;20060;-64
2021/03/12 03:31:23;;;;;;;1.02;0.80;;;;;;;;;;5089376;28;20111;-65
2021/03/12 03:33:49;;;;;;;1.25;0.68;;;;;;;;;;5089955;28;20023;-64
2021/03/12 03:36:16;;;;;;;2.25;0.60;;;;;;;;;;5089951;28;20028;-64
2021/03/12 03:38:42;;;;;;;0.68;0.52;;;;;;;;;;5072145;28;20082;-64
2021/03/12 03:41:10;;;;;;;0.52;0.45;;;;;;;;;;5068678;28;20186;-64
2021/03/12 03:43:41;;;;;;;0.90;0.80;;;;;;;;;;5070018;28;20027;-64
2021/03/12 03:46:08;;;;;;;0.50;0.50;;;;;;;;;;5069506;28;20028;-64
2021/03/12 03:48:34;;;;;;;0.93;0.63;;;;;;;;;;5070431;28;20028;-64
2021/03/12 03:51:01;;;;;;;0.50;0.40;;;;;;;;;;5069377;28;20116;-64
2021/03/12 03:53:28;;;;;;;2.03;1.05;;;;;;;;;;5069741;28;20105;-64
2021/03/12 03:55:55;;;;;;;2.70;0.90;;;;;;;;;;5069834;28;20033;-64
2021/03/12 03:58:21;;;;;;;0.77;0.60;;;;;;;;;;5067785;28;20582;-64
2021/03/12 04:00:47;;;;;;;0.52;0.40;;;;;;;;;;5068733;28;20027;-64
2021/03/12 04:03:14;;;;;;;2.30;0.75;;;;;;;;;;5067990;28;20059;-64
2021/03/12 04:05:40;;;;;;;4.47;0.90;;;;;;;;;;5069427;28;20106;-64
2021/03/12 04:08:07;;;;;;;3.88;1.25;;;;;;;;;;5068939;28;20368;-64
2021/03/12 04:10:33;;;;;;;1.35;0.55;;;;;;;;;;5068798;28;20024;-64
2021/03/12 04:12:59;;;;;;;0.45;0.40;;;;;;;;;;5069444;28;20032;-64
2021/03/12 04:15:26;;;;;;;1.52;1.42;;;;;;;;;;5086357;28;20566;-64
2021/03/12 04:17:52;;;;;;;1.15;1.00;;;;;;;;;;5089655;28;20028;-64
2021/03/12 04:20:19;;;;;;;0.63;0.63;;;;;;;;;;5088297;28;20028;-64
2021/03/12 04:22:45;;;;;;;0.82;0.50;;;;;;;;;;5088033;28;20111;-64
2021/03/12 04:25:11;;;;;;;1.02;0.50;;;;;;;;;;5088366;28;20032;-64
2021/03/12 04:27:38;;;;;;;2.50;0.98;;;;;;;;;;5088428;28;20024;-64
2021/03/12 04:30:04;;;;;;;0.20;0.20;;;;;;;;;;5088747;28;20024;-64
2021/03/12 04:32:30;;;;;;;1.02;0.47;;;;;;;;;;5089174;28;20416;-64
2021/03/12 04:34:57;;;;;;;1.35;0.68;;;;;;;;;;5089332;28;20039;-64
2021/03/12 04:37:23;;;;;;;0.52;0.40;;;;;;;;;;5088966;28;20557;-64
2021/03/12 04:39:49;;;;;;;0.80;0.80;;;;;;;;;;5089030;28;20376;-64
2021/03/12 04:42:16;;;;;;;0.73;0.63;;;;;;;;;;5088047;28;20012;-64
2021/03/12 04:44:42;;;;;;;0.43;0.40;;;;;;;;;;5089136;28;20475;-64
2021/03/12 04:47:08;;;;;;;0.50;0.43;;;;;;;;;;5088924;28;20027;-64
2021/03/12 04:49:35;;;;;;;0.50;0.43;;;;;;;;;;5089030;28;20463;-64
2021/03/12 04:52:02;;;;;;;1.83;0.82;;;;;;;;;;5088560;28;20035;-64
2021/03/12 04:54:29;;;;;;;0.55;0.52;;;;;;;;;;5088720;28;20047;-64
2021/03/12 04:56:55;;;;;;;1.92;1.23;;;;;;;;;;5089165;28;20490;-64
2021/03/12 04:59:21;;;;;;;0.85;0.47;;;;;;;;;;5086945;28;20383;-64
2021/03/12 05:01:48;;;;;;;0.40;0.40;;;;;;;;;;5088415;28;20059;-64
2021/03/12 05:04:14;;;;;;;2.08;0.60;;;;;;;;;;5087117;28;20031;-64
2021/03/12 05:06:44;;;;;;;0.77;0.63;;;;;;;;;;5088543;28;20110;-64
2021/03/12 05:09:13;;;;;;;0.50;0.50;;;;;;;;;;5088315;28;20028;-64
2021/03/12 05:11:41;;;;;;;1.33;0.40;;;;;;;;;;5088125;28;20121;-64
2021/03/12 05:14:08;;;;;;;2.20;0.70;;;;;;;;;;5088098;28;20047;-64
2021/03/12 05:16:34;;;;;;;0.50;0.38;;;;;;;;;;5088897;28;20062;-64
2021/03/12 05:19:00;;;;;;;0.45;0.35;;;;;;;;;;5088410;28;20136;-64
2021/03/12 05:21:26;;;;;;;1.90;0.52;;;;;;;;;;5087606;28;20375;-64
2021/03/12 05:23:52;;;;;;;0.75;0.50;;;;;;;;;;5088378;28;20114;-64
2021/03/12 05:26:18;;;;;;;1.73;0.52;;;;;;;;;;5087784;28;20035;-64
2021/03/12 05:28:44;;;;;;;1.23;0.63;;;;;;;;;;5087292;28;20082;-64
2021/03/12 05:31:10;;;;;;;1.25;0.80;;;;;;;;;;5087079;28;20028;-64
2021/03/12 05:33:36;;;;;;;1.55;0.52;;;;;;;;;;5087561;28;20043;-64
2021/03/12 05:36:03;;;;;;;1.17;0.60;;;;;;;;;;5087912;28;20030;-64
2021/03/12 05:38:29;;;;;;;1.25;0.70;;;;;;;;;;5072095;28;20044;-64
2021/03/12 05:40:55;;;;;;;7.95;1.77;;;;;;;;;;5067472;28;20029;-64
2021/03/12 05:43:22;;;;;;;0.88;0.55;;;;;;;;;;5067133;28;20063;-64
2021/03/12 05:45:48;;;;;;;0.63;0.45;;;;;;;;;;5067854;28;20021;-64
2021/03/12 05:48:15;;;;;;;0.60;0.32;;;;;;;;;;5067297;28;20152;-64
2021/03/12 05:50:42;;;;;;;0.65;0.43;;;;;;;;;;5067386;28;20092;-64
2021/03/12 05:53:09;;;;;;;0.50;0.40;;;;;;;;;;5066828;28;20119;-64
2021/03/12 05:55:35;;;;;;;0.60;0.57;;;;;;;;;;5067894;28;20024;-64
2021/03/12 05:58:01;;;;;;;1.70;1.00;;;;;;;;;;5066148;28;20045;-64
2021/03/12 06:00:27;;;;;;;0.77;0.50;;;;;;;;;;5066893;28;20127;-64
2021/03/12 06:02:53;;;;;;;0.80;0.40;;;;;;;;;;5067221;28;20029;-64
2021/03/12 06:05:20;;;;;;;3.50;0.40;;;;;;;;;;5066766;28;20037;-64
2021/03/12 06:07:49;;;;;;;1.02;0.70;;;;;;;;;;5067520;28;20458;-64
2021/03/12 06:10:16;;;;;;;0.70;0.40;;;;;;;;;;5066349;28;20020;-64
2021/03/12 06:12:42;;;;;;;1.95;0.40;;;;;;;;;;5067501;28;20119;-64
2021/03/12 06:15:09;;;;;;;0.60;0.60;;;;;;;;;;5081749;28;20107;-64
2021/03/12 06:17:38;;;;;;;0.88;0.40;;;;;;;;;;5088168;28;20063;-64
2021/03/12 06:20:05;;;;;;;0.95;0.50;;;;;;;;;;5086761;28;20027;-64
2021/03/12 06:22:32;;;;;;;2.88;0.77;;;;;;;;;;5087440;28;20028;-64
2021/03/12 06:25:11;;;;;;;0.65;0.63;;;;;;;;;;5087953;28;20021;-64
2021/03/12 06:27:37;;;;;;;1.58;0.70;;;;;;;;;;5086783;28;20470;-64
2021/03/12 06:30:04;;;;;;;0.57;0.13;;;;;;;;;;5086480;28;20035;-64
2021/03/12 06:32:47;;;;;;;1.30;1.00;;;;;;;;;;5087087;28;20039;-64
2021/03/12 06:35:15;;;;;;;1.40;0.40;;;;;;;;;;5087307;28;20494;-64
2021/03/12 06:37:41;;;;;;;1.45;0.60;;;;;;;;;;5087734;28;20027;-64
2021/03/12 06:40:21;;;;;;;1.65;0.50;;;;;;;;;;5086909;28;20028;-64
2021/03/12 06:43:00;;;;;;;0.95;0.60;;;;;;;;;;5086973;28;20052;-64
2021/03/12 06:45:26;;;;;;;0.40;0.40;;;;;;;;;;5089274;28;20039;-64
2021/03/12 06:47:52;;;;;;;1.73;1.63;;;;;;;;;;5091423;28;20422;-64
2021/03/12 06:50:20;;;;;;;2.35;0.70;;;;;;;;;;5089996;28;20024;-64
2021/03/12 06:52:46;;;;;;;0.70;0.70;;;;;;;;;;5091192;28;20031;-64
2021/03/12 06:55:12;;;;;;;3.53;0.93;;;;;;;;;;5090858;28;20024;-64
2021/03/12 06:57:38;;;;;;;1.58;1.20;;;;;;;;;;5088121;28;20512;-64
2021/03/12 07:00:08;;;;;;;1.52;1.30;;;;;;;;;;5089125;28;20075;-64
2021/03/12 07:02:37;;;;;;;3.67;1.42;;;;;;;;;;5080244;28;20024;-63
2021/03/12 07:05:05;;;;;;;4.65;2.33;;;;;;;;;;5084113;28;20055;-64
2021/03/12 07:07:34;;;;;;;2.40;0.80;;;;;;;;;;5089837;28;20024;-64
2021/03/12 07:10:00;;;;;;;1.70;0.93;;;;;;;;;;5089633;28;20110;-64
2021/03/12 07:12:45;;;;;;;1.80;0.70;;;;;;;;;;5086947;28;20036;-64
2021/03/12 07:15:12;;;;;;;0.60;0.60;;;;;;;;;;5089116;28;20418;-64
2021/03/12 07:17:38;;;;;;;1.90;1.23;;;;;;;;;;5087468;28;20032;-64
2021/03/12 07:20:06;;;;;;;1.88;0.82;;;;;;;;;;5086897;28;20726;-64
2021/03/12 07:22:33;;;;;;;4.10;1.27;;;;;;;;;;5088939;28;20043;-64
2021/03/12 07:25:01;;;;;;;2.50;0.70;;;;;;;;;;5082336;28;20412;-64
2021/03/12 07:27:29;;;;;;;0.70;0.70;;;;;;;;;;5077013;28;20036;-64
2021/03/12 07:29:56;;;;;;;1.40;0.90;;;;;;;;;;5086155;28;20123;-66
2021/03/12 07:32:25;;;;;;;2.28;1.42;;;;;;;;;;5075849;28;20612;-65
2021/03/12 07:34:51;;;;;;;2.88;1.10;;;;;;;;;;5084874;28;20035;-65
2021/03/12 07:37:19;;;;;;;2.60;1.35;;;;;;;;;;5074823;28;20070;-65
2021/03/12 07:39:45;;;;;;;1.58;0.90;;;;;;;;;;5078004;28;20044;-65
2021/03/12 07:42:16;;;;;;;2.42;0.93;;;;;;;;;;5076870;28;20040;-65
2021/03/12 07:44:43;;;;;;;3.22;0.90;;;;;;;;;;5079756;28;20124;-65
2021/03/12 07:47:10;;;;;;;6.00;1.75;;;;;;;;;;5070648;28;20513;-65
2021/03/12 07:49:36;;;;;;;4.43;1.15;;;;;;;;;;5082747;28;20029;-65
2021/03/12 07:52:04;;;;;;;2.10;1.02;;;;;;;;;;5081689;28;20054;-65
2021/03/12 07:54:36;;;;;;;2.70;0.95;;;;;;;;;;5086024;28;20027;-64
2021/03/12 07:57:03;;;;;;;1.65;1.48;;;;;;;;;;5082123;28;20028;-64
2021/03/12 07:59:47;;;;;;;2.65;1.65;;;;;;;;;;5081972;28;20059;-64
2021/03/12 08:02:17;;;;;;;3.85;1.63;;;;;;;;;;5079917;28;20097;-64
2021/03/12 08:04:45;;;;;;;4.72;2.72;;;;;;;;;;5086482;28;20032;-64
2021/03/12 08:07:19;;;;;;;4.07;2.05;;;;;;;;;;5084087;28;20044;-64
2021/03/12 08:09:45;;;;;;;3.65;2.20;;;;;;;;;;5087539;28;20024;-64
2021/03/12 08:12:31;;;;;;;3.90;2.17;;;;;;;;;;5083343;28;20027;-64
2021/03/12 08:15:16;;;;;;;2.97;2.67;;;;;;;;;;5072045;28;20054;-65
2021/03/12 08:17:43;;;;;;;5.40;1.55;;;;;;;;;;5080261;28;20028;-64
2021/03/12 08:20:43;;;;;;;3.80;2.20;;;;;;;;;;5087053;28;20060;-64
2021/03/12 08:23:29;;;;;;;5.05;1.55;;;;;;;;;;5044032;28;20575;-64
2021/03/12 08:25:55;;;;;;;2.35;1.30;;;;;;;;;;5076447;28;20032;-64
2021/03/12 08:28:25;;;;;;;8.52;2.28;;;;;;;;;;5084228;28;20492;-65
2021/03/12 08:30:52;;;;;;;2.08;1.40;;;;;;;;;;5087914;28;20445;-65
2021/03/12 08:33:21;;;;;;;2.28;2.00;;;;;;;;;;5079218;28;20032;-64
2021/03/12 08:35:48;;;;;;;3.60;1.77;;;;;;;;;;5088072;28;20087;-65
2021/03/12 08:38:25;;;;;;;3.13;1.77;;;;;;;;;;5085628;28;20066;-64
2021/03/12 08:41:00;;;;;;;2.25;1.45;;;;;;;;;;5088171;28;20027;-64
2021/03/12 08:43:28;;;;;;;5.22;1.48;;;;;;;;;;5087362;28;20128;-64
2021/03/12 08:46:04;;;;;;;2.63;1.42;;;;;;;;;;5087236;28;20024;-65
2021/03/12 08:48:35;;;;;;;5.20;1.88;;;;;;;;;;5084951;28;20146;-64
2021/03/12 08:51:17;;;;;;;1.88;1.13;;;;;;;;;;5085997;28;20029;-65
2021/03/12 08:53:47;;;;;;;2.28;1.20;;;;;;;;;;5087268;28;20028;-68
2021/03/12 08:56:19;;;;;;;5.35;2.05;;;;;;;;;;5086301;28;20040;-67
2021/03/12 08:58:45;;;;;;;2.50;0.90;;;;;;;;;;5085909;28;20055;-69
2021/03/12 09:01:19;;;;;;;4.35;1.17;;;;;;;;;;5079145;28;20080;-65
2021/03/12 09:03:48;;;;;;;7.95;1.27;;;;;;;;;;5066928;28;20039;-65
2021/03/12 09:06:15;;;;;;;3.58;1.63;;;;;;;;;;5070596;28;20618;-64
2021/03/12 09:08:42;;;;;;;3.03;1.27;;;;;;;;;;5085906;28;20028;-65
2021/03/12 09:11:09;;;;;;;5.70;1.85;;;;;;;;;;5077340;28;20024;-65
2021/03/12 09:13:36;;;;;;;2.10;1.40;;;;;;;;;;5073841;28;20028;-65
2021/03/12 09:16:03;;;;;;;1.75;0.88;;;;;;;;;;5071473;28;20025;-65
2021/03/12 09:18:30;;;;;;;3.70;1.63;;;;;;;;;;5074373;28;20098;-65
2021/03/12 09:20:58;;;;;;;2.00;0.85;;;;;;;;;;5075589;28;20119;-66
2021/03/12 09:23:43;;;;;;;4.50;1.63;;;;;;;;;;5070323;28;20139;-65
2021/03/12 09:26:13;;;;;;;3.58;1.23;;;;;;;;;;5074216;28;20109;-64
2021/03/12 09:28:40;;;;;;;3.53;1.00;;;;;;;;;;5083842;28;20059;-64
2021/03/12 09:31:07;;;;;;;2.38;1.38;;;;;;;;;;5078323;28;20046;-64
2021/03/12 09:33:33;;;;;;;3.63;1.15;;;;;;;;;;5071329;28;20525;-64
2021/03/12 09:36:01;;;;;;;4.40;2.15;;;;;;;;;;5082357;28;20028;-64
2021/03/12 09:38:27;;;;;;;1.65;1.10;;;;;;;;;;5083928;28;20071;-64
2021/03/12 09:40:53;;;;;;;4.72;1.30;;;;;;;;;;5079839;28;20032;-65
2021/03/12 09:43:20;;;;;;;3.00;1.65;;;;;;;;;;5085733;28;20034;-65
2021/03/12 09:45:49;;;;;;;3.38;1.70;;;;;;;;;;5087314;28;20038;-64
2021/03/12 09:48:15;;;;;;;2.05;1.17;;;;;;;;;;5084014;28;20418;-64
2021/03/12 09:50:42;;;;;;;4.60;1.23;;;;;;;;;;5075628;28;20033;-64
2021/03/12 09:53:09;;;;;;;2.85;1.50;;;;;;;;;;5074520;28;20115;-63
2021/03/12 09:55:36;;;;;;;7.60;1.88;;;;;;;;;;5086314;28;20081;-70
2021/03/12 09:58:07;;;;;;;4.50;1.15;;;;;;;;;;5083627;28;20040;-66
2021/03/12 10:00:34;;;;;;;2.88;1.80;;;;;;;;;;5080175;28;20424;-67
2021/03/12 10:03:00;;;;;;;2.97;0.90;;;;;;;;;;5086496;28;20027;-64
2021/03/12 10:05:27;;;;;;;1.38;1.00;;;;;;;;;;5085661;28;20040;-64
2021/03/12 10:07:53;;;;;;;6.53;1.80;;;;;;;;;;5085219;28;20066;-65
2021/03/12 10:10:30;;;;;;;3.13;1.25;;;;;;;;;;5081596;28;20036;-64
2021/03/12 10:12:57;;;;;;;2.00;1.55;;;;;;;;;;5070360;28;20032;-64
2021/03/12 10:15:28;;;;;;;6.70;1.85;;;;;;;;;;5081062;28;20733;-64
2021/03/12 10:17:54;;;;;;;8.80;1.63;;;;;;;;;;5085487;28;20054;-64
2021/03/12 10:20:27;;;;;;;3.35;1.13;;;;;;;;;;5087215;28;20036;-64
2021/03/12 10:22:53;;;;;;;3.83;1.30;;;;;;;;;;5090730;28;20398;-64
2021/03/12 10:25:22;;;;;;;3.22;1.15;;;;;;;;;;5089145;28;20105;-64
2021/03/12 10:27:48;;;;;;;9.85;2.20;;;;;;;;;;5088382;28;20039;-64
2021/03/12 10:30:17;;;;;;;2.22;1.02;;;;;;;;;;5089633;28;20020;-67
2021/03/12 10:32:47;;;;;;;2.25;1.00;;;;;;;;;;5088891;28;20138;-66
2021/03/12 10:35:17;;;;;;;5.20;1.38;;;;;;;;;;5089633;28;20089;-64
2021/03/12 10:37:44;;;;;;;2.85;1.30;;;;;;;;;;5089678;28;20043;-64
2021/03/12 10:40:10;;;;;;;1.92;0.90;;;;;;;;;;5089502;28;20027;-64
2021/03/12 10:42:36;;;;;;;3.83;1.33;;;;;;;;;;5090345;28;20024;-64
2021/03/12 10:45:07;;;;;;;3.80;1.02;;;;;;;;;;5089670;28;20119;-64
2021/03/12 10:47:33;;;;;;;1.15;1.00;;;;;;;;;;5088839;28;20055;-68
2021/03/12 10:49:59;;;;;;;1.05;0.85;;;;;;;;;;5089328;28;20032;-65
2021/03/12 10:52:25;;;;;;;2.28;1.00;;;;;;;;;;5088692;28;20085;-65
2021/03/12 10:54:52;;;;;;;3.55;1.42;;;;;;;;;;5089034;28;20028;-65
2021/03/12 10:57:19;;;;;;;1.17;0.73;;;;;;;;;;5082611;28;20721;-65
2021/03/12 10:59:57;;;;;;;2.80;1.38;;;;;;;;;;5083284;28;20037;-64
2021/03/12 11:02:37;;;;;;;2.47;1.27;;;;;;;;;;5070095;28;20060;-64
2021/03/12 11:05:04;;;;;;;5.68;1.50;;;;;;;;;;5083306;28;20054;-64
2021/03/12 11:07:30;;;;;;;2.80;1.02;;;;;;;;;;5083869;28;20113;-64
2021/03/12 11:09:56;;;;;;;3.90;2.35;;;;;;;;;;5074487;28;20028;-65
2021/03/12 11:12:23;;;;;;;4.25;1.65;;;;;;;;;;5079552;28;20020;-65
2021/03/12 11:14:50;;;;;;;2.08;0.90;;;;;;;;;;5074762;28;20506;-65
2021/03/12 11:17:16;;;;;;;2.20;0.70;;;;;;;;;;5079059;28;20032;-64
2021/03/12 11:19:42;;;;;;;0.80;0.63;;;;;;;;;;5089665;28;20076;-65
2021/03/12 11:22:08;;;;;;;2.88;0.98;;;;;;;;;;5086910;28;20403;-64
2021/03/12 11:24:34;;;;;;;3.55;1.40;;;;;;;;;;5072603;28;20016;-65
2021/03/12 11:27:00;;;;;;;3.28;1.63;;;;;;;;;;5079998;28;20111;-64
2021/03/12 11:29:28;;;;;;;5.00;1.08;;;;;;;;;;5068259;28;20024;-64
2021/03/12 11:31:54;;;;;;;0.85;0.80;;;;;;;;;;5081232;28;20028;-64
2021/03/12 11:34:20;;;;;;;9.68;1.70;;;;;;;;;;5082416;28;20038;-64
2021/03/12 11:36:46;;;;;;;4.28;1.65;;;;;;;;;;5083757;28;20041;-64
2021/03/12 11:39:12;;;;;;;1.67;1.00;;;;;;;;;;5087042;28;20093;-64
2021/03/12 11:41:39;;;;;;;2.58;1.63;;;;;;;;;;5080063;28;20101;-64
2021/03/12 11:44:05;;;;;;;2.85;1.35;;;;;;;;;;5067097;28;20027;-64
2021/03/12 11:46:31;;;;;;;6.95;1.13;;;;;;;;;;5069105;28;20048;-64
2021/03/12 11:48:58;;;;;;;1.92;0.80;;;;;;;;;;5068860;28;20027;-64
2021/03/12 11:51:24;;;;;;;4.63;1.25;;;;;;;;;;5086467;28;20451;-64
2021/03/12 11:53:50;;;;;;;1.40;0.77;;;;;;;;;;5087230;28;20119;-64
2021/03/12 11:56:16;;;;;;;2.90;1.10;;;;;;;;;;5086812;28;20035;-64
2021/03/12 11:58:43;;;;;;;2.83;1.35;;;;;;;;;;5086410;28;20047;-64
2021/03/12 12:01:09;;;;;;;1.17;0.77;;;;;;;;;;5086632;28;20119;-64
2021/03/12 12:03:35;;;;;;;1.67;1.10;;;;;;;;;;5078927;28;20032;-64
2021/03/12 12:06:01;;;;;;;1.05;0.70;;;;;;;;;;5067833;28;20551;-64
2021/03/12 12:08:27;;;;;;;3.50;0.95;;;;;;;;;;5067804;28;20029;-64
2021/03/12 12:10:53;;;;;;;1.13;0.90;;;;;;;;;;5066333;28;20111;-65
2021/03/12 12:13:19;;;;;;;0.77;0.60;;;;;;;;;;5066291;28;20560;-64
2021/03/12 12:15:45;;;;;;;1.55;0.80;;;;;;;;;;5088085;28;20099;-65
2021/03/12 12:18:11;;;;;;;3.70;1.10;;;;;;;;;;5085294;28;20097;-64
2021/03/12 12:20:44;;;;;;;1.52;0.75;;;;;;;;;;5087312;28;20091;-64
2021/03/12 12:23:11;;;;;;;3.05;1.67;;;;;;;;;;5065032;28;20034;-64
2021/03/12 12:25:37;;;;;;;4.28;1.30;;;;;;;;;;5065862;28;20032;-64
2021/03/12 12:28:06;;;;;;;0.80;0.77;;;;;;;;;;5075957;28;20031;-64
2021/03/12 12:30:32;;;;;;;3.13;1.77;;;;;;;;;;5078714;28;20040;-65
2021/03/12 12:32:59;;;;;;;1.38;0.80;;;;;;;;;;5064738;28;20040;-65
2021/03/12 12:35:25;;;;;;;0.70;0.43;;;;;;;;;;5067899;28;20023;-64
2021/03/12 12:37:51;;;;;;;4.70;1.73;;;;;;;;;;5080704;28;20032;-64
2021/03/12 12:40:20;;;;;;;1.05;0.73;;;;;;;;;;5079057;28;20077;-64
2021/03/12 12:42:46;;;;;;;9.63;1.10;;;;;;;;;;5064498;28;20078;-65
2021/03/12 12:45:13;;;;;;;2.17;0.57;;;;;;;;;;5082578;28;20035;-65
2021/03/12 12:47:39;;;;;;;1.33;0.60;;;;;;;;;;5077857;28;20036;-65
2021/03/12 12:50:06;;;;;;;2.20;0.82;;;;;;;;;;5083813;28;20024;-66
2021/03/12 12:52:33;;;;;;;2.65;0.70;;;;;;;;;;5084685;28;20362;-65
2021/03/12 12:54:59;;;;;;;1.08;1.00;;;;;;;;;;5079829;28;20020;-65
2021/03/12 12:57:25;;;;;;;1.25;1.02;;;;;;;;;;5079709;28;20024;-65
2021/03/12 12:59:51;;;;;;;0.77;0.75;;;;;;;;;;5085192;28;20044;-66
2021/03/12 13:02:18;;;;;;;1.35;1.10;;;;;;;;;;5083918;28;20109;-65
2021/03/12 13:04:44;;;;;;;1.10;1.00;;;;;;;;;;5084642;28;20651;-66
2021/03/12 13:07:10;;;;;;;0.85;0.85;;;;;;;;;;5075373;28;20035;-65
2021/03/12 13:09:36;;;;;;;4.70;0.90;;;;;;;;;;5074603;28;20046;-66
2021/03/12 13:12:02;;;;;;;0.38;0.38;;;;;;;;;;5084423;28;20115;-66
2021/03/12 13:14:29;;;;;;;2.05;0.70;;;;;;;;;;5085846;28;20119;-66
2021/03/12 13:16:55;;;;;;;1.20;0.90;;;;;;;;;;5079229;28;20122;-65
2021/03/12 13:19:21;;;;;;;1.30;0.63;;;;;;;;;;5064674;28;20716;-65
2021/03/12 13:21:47;;;;;;;1.10;0.95;;;;;;;;;;5071208;28;20442;-66
2021/03/12 13:24:13;;;;;;;3.65;0.80;;;;;;;;;;5065887;28;20283;-65
2021/03/12 13:26:39;;;;;;;2.75;0.88;;;;;;;;;;5077142;28;20268;-65
2021/03/12 13:29:05;;;;;;;1.52;0.90;;;;;;;;;;5075207;28;20032;-65
2021/03/12 13:31:31;;;;;;;0.85;0.50;;;;;;;;;;5084956;28;20448;-65
2021/03/12 13:34:01;;;;;;;2.13;0.52;;;;;;;;;;5084597;28;20063;-66
2021/03/12 13:36:27;;;;;;;2.03;0.90;;;;;;;;;;5085073;28;20089;-65
2021/03/12 13:38:53;;;;;;;4.90;1.35;;;;;;;;;;5069608;28;20380;-65
2021/03/12 13:41:19;;;;;;;0.63;0.63;;;;;;;;;;5063359;28;20028;-65
2021/03/12 13:43:45;;;;;;;1.30;0.77;;;;;;;;;;5071203;28;20047;-65
2021/03/12 13:46:11;;;;;;;1.05;0.77;;;;;;;;;;5067077;28;20050;-65
2021/03/12 13:48:37;;;;;;;1.15;0.63;;;;;;;;;;5083045;28;20058;-65
2021/03/12 13:51:05;;;;;;;0.38;0.30;;;;;;;;;;5079828;28;20078;-65
2021/03/12 13:53:31;;;;;;;1.00;0.55;;;;;;;;;;5079190;28;20089;-65
2021/03/12 13:55:57;;;;;;;2.05;0.73;;;;;;;;;;5084957;28;20526;-65
2021/03/12 13:58:23;;;;;;;1.00;0.50;;;;;;;;;;5064131;28;20639;-65
2021/03/12 14:00:49;;;;;;;1.65;0.65;;;;;;;;;;5073977;28;20025;-66
2021/03/12 14:03:15;;;;;;;1.17;0.63;;;;;;;;;;5084310;28;20107;-65
2021/03/12 14:05:41;;;;;;;2.65;0.45;;;;;;;;;;5080964;28;20037;-66
2021/03/12 14:08:07;;;;;;;1.75;0.82;;;;;;;;;;5075971;28;20052;-66
2021/03/12 14:10:33;;;;;;;3.15;0.43;;;;;;;;;;5069698;28;20028;-66
2021/03/12 14:12:59;;;;;;;3.17;0.85;;;;;;;;;;5082069;28;20034;-66
2021/03/12 14:15:25;;;;;;;0.93;0.40;;;;;;;;;;5077739;28;20709;-65
2021/03/12 14:17:52;;;;;;;2.83;1.52;;;;;;;;;;5080814;28;20032;-66
2021/03/12 14:20:18;;;;;;;2.20;0.70;;;;;;;;;;5069254;28;20089;-66
2021/03/12 14:22:44;;;;;;;1.48;0.68;;;;;;;;;;5083852;28;20116;-68
2021/03/12 14:25:10;;;;;;;0.80;0.73;;;;;;;;;;5084342;28;20063;-65
2021/03/12 14:27:36;;;;;;;1.13;0.68;;;;;;;;;;5078812;28;20071;-66
2021/03/12 14:30:06;;;;;;;3.72;0.75;;;;;;;;;;5070707;28;20017;-67
2021/03/12 14:32:32;;;;;;;0.52;0.52;;;;;;;;;;5067490;28;20024;-66
2021/03/12 14:34:58;;;;;;;0.60;0.50;;;;;;;;;;5084727;28;20085;-67
2021/03/12 14:37:25;;;;;;;2.63;0.38;;;;;;;;;;5073221;28;20524;-66
2021/03/12 14:39:51;;;;;;;0.93;0.60;;;;;;;;;;5064488;28;20033;-66
2021/03/12 14:42:17;;;;;;;2.25;0.63;;;;;;;;;;5062484;28;20032;-66
2021/03/12 14:44:44;;;;;;;0.75;0.50;;;;;;;;;;5064728;28;20029;-66
2021/03/12 14:47:10;;;;;;;0.60;0.52;;;;;;;;;;5065230;28;20032;-65
2021/03/12 14:49:37;;;;;;;0.93;0.43;;;;;;;;;;5077624;28;20028;-66